sensor_id;sensor_type;location;lat;lon;timestamp;P1;durP1;ratioP1;P2;durP2;ratioP2
16029;SDS011;34770;49.272;11.070;2023-01-24T00:01:41;13.37;;;8.77;;
16029;SDS011;34770;49.272;11.070;2023-01-24T00:04:06;13.83;;;10.00;;
16029;SDS011;34770;49.272;11.070;2023-01-24T00:06:32;12.90;;;8.03;;
16029;SDS011;34770;49.272;11.070;2023-01-24T00:08:57;13.33;;;8.73;;
16029;SDS011;34770;49.272;11.070;2023-01-24T00:11:23;11.53;;;7.73;;
16029;SDS011;34770;49.272;11.070;2023-01-24T00:13:48;12.00;;;7.90;;
16029;SDS011;34770;49.272;11.070;2023-01-24T00:16:19;9.63;;;7.87;;
16029;SDS011;34770;49.272;11.070;2023-01-24T00:18:46;12.50;;;8.37;;
16029;SDS011;34770;49.272;11.070;2023-01-24T00:23:42;13.50;;;9.30;;
16029;SDS011;34770;49.272;11.070;2023-01-24T00:26:10;13.00;;;8.87;;
16029;SDS011;34770;49.272;11.070;2023-01-24T00:28:39;11.93;;;9.10;;
16029;SDS011;34770;49.272;11.070;2023-01-24T00:31:05;12.13;;;8.70;;
16029;SDS011;34770;49.272;11.070;2023-01-24T00:33:31;13.73;;;8.77;;
16029;SDS011;34770;49.272;11.070;2023-01-24T00:35:58;14.93;;;9.30;;
16029;SDS011;34770;49.272;11.070;2023-01-24T00:38:24;13.27;;;9.83;;
16029;SDS011;34770;49.272;11.070;2023-01-24T00:40:49;12.70;;;8.50;;
16029;SDS011;34770;49.272;11.070;2023-01-24T00:43:15;14.67;;;10.10;;
16029;SDS011;34770;49.272;11.070;2023-01-24T00:45:42;13.67;;;9.53;;
16029;SDS011;34770;49.272;11.070;2023-01-24T00:48:09;13.03;;;8.67;;
16029;SDS011;34770;49.272;11.070;2023-01-24T00:50:35;16.30;;;9.60;;
16029;SDS011;34770;49.272;11.070;2023-01-24T00:53:01;14.00;;;9.03;;
16029;SDS011;34770;49.272;11.070;2023-01-24T00:55:27;12.17;;;8.47;;
16029;SDS011;34770;49.272;11.070;2023-01-24T00:57:53;14.83;;;9.67;;
16029;SDS011;34770;49.272;11.070;2023-01-24T01:00:19;15.43;;;9.27;;
16029;SDS011;34770;49.272;11.070;2023-01-24T01:02:46;14.40;;;9.23;;
16029;SDS011;34770;49.272;11.070;2023-01-24T01:05:15;14.00;;;9.63;;
16029;SDS011;34770;49.272;11.070;2023-01-24T01:07:41;14.50;;;9.20;;
16029;SDS011;34770;49.272;11.070;2023-01-24T01:10:07;15.87;;;9.60;;
16029;SDS011;34770;49.272;11.070;2023-01-24T01:12:33;13.87;;;9.50;;
16029;SDS011;34770;49.272;11.070;2023-01-24T01:14:58;14.70;;;9.30;;
16029;SDS011;34770;49.272;11.070;2023-01-24T01:17:24;15.87;;;10.13;;
16029;SDS011;34770;49.272;11.070;2023-01-24T01:19:51;14.80;;;8.63;;
16029;SDS011;34770;49.272;11.070;2023-01-24T01:22:17;13.60;;;9.23;;
16029;SDS011;34770;49.272;11.070;2023-01-24T01:24:43;13.53;;;9.17;;
16029;SDS011;34770;49.272;11.070;2023-01-24T01:27:08;14.93;;;8.77;;
16029;SDS011;34770;49.272;11.070;2023-01-24T01:29:34;15.27;;;9.97;;
16029;SDS011;34770;49.272;11.070;2023-01-24T01:32:00;11.57;;;7.37;;
16029;SDS011;34770;49.272;11.070;2023-01-24T01:34:25;13.87;;;9.03;;
16029;SDS011;34770;49.272;11.070;2023-01-24T01:36:54;13.07;;;8.80;;
16029;SDS011;34770;49.272;11.070;2023-01-24T01:39:19;12.80;;;8.33;;
16029;SDS011;34770;49.272;11.070;2023-01-24T01:41:44;13.43;;;9.77;;
16029;SDS011;34770;49.272;11.070;2023-01-24T01:44:23;13.27;;;9.17;;
16029;SDS011;34770;49.272;11.070;2023-01-24T01:47:25;11.80;;;8.33;;
16029;SDS011;34770;49.272;11.070;2023-01-24T01:52:25;14.27;;;9.30;;
16029;SDS011;34770;49.272;11.070;2023-01-24T01:54:56;13.47;;;9.23;;
16029;SDS011;34770;49.272;11.070;2023-01-24T01:57:26;13.37;;;8.43;;
16029;SDS011;34770;49.272;11.070;2023-01-24T01:59:59;12.53;;;8.37;;
16029;SDS011;34770;49.272;11.070;2023-01-24T02:02:38;14.20;;;8.23;;
16029;SDS011;34770;49.272;11.070;2023-01-24T02:05:07;11.77;;;8.07;;
16029;SDS011;34770;49.272;11.070;2023-01-24T02:10:00;10.43;;;7.43;;
16029;SDS011;34770;49.272;11.070;2023-01-24T02:12:28;10.23;;;7.10;;
16029;SDS011;34770;49.272;11.070;2023-01-24T02:15:02;10.13;;;7.53;;
16029;SDS011;34770;49.272;11.070;2023-01-24T02:17:49;10.33;;;7.50;;
16029;SDS011;34770;49.272;11.070;2023-01-24T02:28:48;12.10;;;8.20;;
16029;SDS011;34770;49.272;11.070;2023-01-24T02:31:19;8.13;;;6.70;;
16029;SDS011;34770;49.272;11.070;2023-01-24T02:33:44;11.63;;;7.97;;
16029;SDS011;34770;49.272;11.070;2023-01-24T02:38:58;11.07;;;6.77;;
16029;SDS011;34770;49.272;11.070;2023-01-24T02:41:28;9.10;;;6.47;;
16029;SDS011;34770;49.272;11.070;2023-01-24T02:44:01;11.60;;;7.70;;
16029;SDS011;34770;49.272;11.070;2023-01-24T02:46:30;9.17;;;7.03;;
16029;SDS011;34770;49.272;11.070;2023-01-24T02:49:01;10.33;;;7.17;;
16029;SDS011;34770;49.272;11.070;2023-01-24T02:51:26;9.23;;;6.67;;
16029;SDS011;34770;49.272;11.070;2023-01-24T02:54:11;12.07;;;6.77;;
16029;SDS011;34770;49.272;11.070;2023-01-24T02:56:36;10.47;;;7.00;;
16029;SDS011;34770;49.272;11.070;2023-01-24T02:59:20;8.33;;;6.77;;
16029;SDS011;34770;49.272;11.070;2023-01-24T03:01:45;11.23;;;7.00;;
16029;SDS011;34770;49.272;11.070;2023-01-24T03:04:11;9.57;;;6.57;;
16029;SDS011;34770;49.272;11.070;2023-01-24T03:06:37;10.57;;;7.43;;
16029;SDS011;34770;49.272;11.070;2023-01-24T03:09:02;11.97;;;7.73;;
16029;SDS011;34770;49.272;11.070;2023-01-24T03:11:44;8.10;;;6.80;;
16029;SDS011;34770;49.272;11.070;2023-01-24T03:14:10;9.87;;;6.53;;
16029;SDS011;34770;49.272;11.070;2023-01-24T03:16:54;12.30;;;7.57;;
16029;SDS011;34770;49.272;11.070;2023-01-24T03:19:38;9.00;;;6.17;;
16029;SDS011;34770;49.272;11.070;2023-01-24T03:22:22;9.33;;;6.47;;
16029;SDS011;34770;49.272;11.070;2023-01-24T03:25:06;9.37;;;6.47;;
16029;SDS011;34770;49.272;11.070;2023-01-24T03:27:51;11.47;;;7.13;;
16029;SDS011;34770;49.272;11.070;2023-01-24T03:30:34;9.67;;;7.43;;
16029;SDS011;34770;49.272;11.070;2023-01-24T03:33:18;11.27;;;7.60;;
16029;SDS011;34770;49.272;11.070;2023-01-24T03:36:02;8.57;;;5.37;;
16029;SDS011;34770;49.272;11.070;2023-01-24T03:38:31;8.37;;;6.63;;
16029;SDS011;34770;49.272;11.070;2023-01-24T03:41:23;12.60;;;7.60;;
16029;SDS011;34770;49.272;11.070;2023-01-24T03:43:48;10.77;;;7.17;;
16029;SDS011;34770;49.272;11.070;2023-01-24T03:46:14;9.57;;;6.93;;
16029;SDS011;34770;49.272;11.070;2023-01-24T03:48:39;11.90;;;7.90;;
16029;SDS011;34770;49.272;11.070;2023-01-24T03:51:05;10.63;;;7.73;;
16029;SDS011;34770;49.272;11.070;2023-01-24T03:53:48;10.77;;;7.50;;
16029;SDS011;34770;49.272;11.070;2023-01-24T03:56:14;7.53;;;6.33;;
16029;SDS011;34770;49.272;11.070;2023-01-24T03:58:39;13.00;;;7.20;;
16029;SDS011;34770;49.272;11.070;2023-01-24T04:01:05;9.57;;;7.50;;
16029;SDS011;34770;49.272;11.070;2023-01-24T04:03:31;10.23;;;7.37;;
16029;SDS011;34770;49.272;11.070;2023-01-24T04:05:57;9.07;;;6.83;;
16029;SDS011;34770;49.272;11.070;2023-01-24T04:08:23;8.40;;;6.47;;
16029;SDS011;34770;49.272;11.070;2023-01-24T04:10:49;8.37;;;6.47;;
16029;SDS011;34770;49.272;11.070;2023-01-24T04:13:14;9.73;;;6.27;;
16029;SDS011;34770;49.272;11.070;2023-01-24T04:15:40;9.43;;;6.37;;
16029;SDS011;34770;49.272;11.070;2023-01-24T04:18:05;8.30;;;6.53;;
16029;SDS011;34770;49.272;11.070;2023-01-24T04:20:32;11.67;;;7.53;;
16029;SDS011;34770;49.272;11.070;2023-01-24T04:23:00;7.90;;;6.30;;
16029;SDS011;34770;49.272;11.070;2023-01-24T04:25:27;8.70;;;6.63;;
16029;SDS011;34770;49.272;11.070;2023-01-24T04:27:53;8.27;;;6.17;;
16029;SDS011;34770;49.272;11.070;2023-01-24T04:30:18;8.17;;;6.70;;
16029;SDS011;34770;49.272;11.070;2023-01-24T04:32:44;8.73;;;6.30;;
16029;SDS011;34770;49.272;11.070;2023-01-24T04:35:10;9.67;;;6.73;;
16029;SDS011;34770;49.272;11.070;2023-01-24T04:37:41;8.27;;;6.23;;
16029;SDS011;34770;49.272;11.070;2023-01-24T04:40:07;9.20;;;6.03;;
16029;SDS011;34770;49.272;11.070;2023-01-24T04:42:33;9.23;;;6.37;;
16029;SDS011;34770;49.272;11.070;2023-01-24T04:44:58;11.40;;;6.10;;
16029;SDS011;34770;49.272;11.070;2023-01-24T04:47:24;10.00;;;6.07;;
16029;SDS011;34770;49.272;11.070;2023-01-24T04:49:49;7.47;;;5.97;;
16029;SDS011;34770;49.272;11.070;2023-01-24T04:52:14;8.93;;;6.47;;
16029;SDS011;34770;49.272;11.070;2023-01-24T04:54:40;6.33;;;5.50;;
16029;SDS011;34770;49.272;11.070;2023-01-24T04:57:06;8.47;;;5.50;;
16029;SDS011;34770;49.272;11.070;2023-01-24T04:59:32;6.53;;;5.50;;
16029;SDS011;34770;49.272;11.070;2023-01-24T05:01:57;6.27;;;5.40;;
16029;SDS011;34770;49.272;11.070;2023-01-24T05:04:23;8.13;;;5.97;;
16029;SDS011;34770;49.272;11.070;2023-01-24T05:06:48;7.40;;;5.60;;
16029;SDS011;34770;49.272;11.070;2023-01-24T05:09:14;8.57;;;5.67;;
16029;SDS011;34770;49.272;11.070;2023-01-24T05:11:39;8.13;;;5.80;;
16029;SDS011;34770;49.272;11.070;2023-01-24T05:14:05;8.13;;;6.10;;
16029;SDS011;34770;49.272;11.070;2023-01-24T05:16:33;6.97;;;5.43;;
16029;SDS011;34770;49.272;11.070;2023-01-24T05:18:59;8.37;;;5.37;;
16029;SDS011;34770;49.272;11.070;2023-01-24T05:21:24;6.37;;;5.00;;
16029;SDS011;34770;49.272;11.070;2023-01-24T05:23:50;7.03;;;5.50;;
16029;SDS011;34770;49.272;11.070;2023-01-24T05:26:17;7.20;;;4.97;;
16029;SDS011;34770;49.272;11.070;2023-01-24T05:28:47;8.60;;;6.17;;
16029;SDS011;34770;49.272;11.070;2023-01-24T05:31:13;8.07;;;5.27;;
16029;SDS011;34770;49.272;11.070;2023-01-24T05:33:39;7.23;;;5.13;;
16029;SDS011;34770;49.272;11.070;2023-01-24T05:36:06;6.43;;;5.30;;
16029;SDS011;34770;49.272;11.070;2023-01-24T05:38:37;6.97;;;5.30;;
16029;SDS011;34770;49.272;11.070;2023-01-24T05:41:05;7.03;;;4.97;;
16029;SDS011;34770;49.272;11.070;2023-01-24T05:43:32;5.93;;;4.80;;
16029;SDS011;34770;49.272;11.070;2023-01-24T05:46:03;6.60;;;5.00;;
16029;SDS011;34770;49.272;11.070;2023-01-24T05:48:30;7.07;;;5.23;;
16029;SDS011;34770;49.272;11.070;2023-01-24T05:50:57;6.40;;;5.00;;
16029;SDS011;34770;49.272;11.070;2023-01-24T05:53:27;6.33;;;4.47;;
16029;SDS011;34770;49.272;11.070;2023-01-24T05:56:00;8.80;;;5.03;;
16029;SDS011;34770;49.272;11.070;2023-01-24T05:58:28;5.50;;;4.40;;
16029;SDS011;34770;49.272;11.070;2023-01-24T06:00:54;6.13;;;4.73;;
16029;SDS011;34770;49.272;11.070;2023-01-24T06:03:20;6.60;;;5.43;;
16029;SDS011;34770;49.272;11.070;2023-01-24T06:05:47;5.57;;;4.53;;
16029;SDS011;34770;49.272;11.070;2023-01-24T06:08:14;5.33;;;4.30;;
16029;SDS011;34770;49.272;11.070;2023-01-24T06:10:40;5.73;;;4.40;;
16029;SDS011;34770;49.272;11.070;2023-01-24T06:13:05;6.97;;;5.33;;
16029;SDS011;34770;49.272;11.070;2023-01-24T06:15:31;5.77;;;4.60;;
16029;SDS011;34770;49.272;11.070;2023-01-24T06:17:56;5.50;;;4.17;;
16029;SDS011;34770;49.272;11.070;2023-01-24T06:20:22;5.23;;;4.70;;
16029;SDS011;34770;49.272;11.070;2023-01-24T06:22:59;6.20;;;4.93;;
16029;SDS011;34770;49.272;11.070;2023-01-24T06:25:28;4.77;;;3.93;;
16029;SDS011;34770;49.272;11.070;2023-01-24T06:27:54;6.57;;;5.30;;
16029;SDS011;34770;49.272;11.070;2023-01-24T06:30:20;4.83;;;4.03;;
16029;SDS011;34770;49.272;11.070;2023-01-24T06:38:47;7.70;;;4.80;;
16029;SDS011;34770;49.272;11.070;2023-01-24T06:41:14;5.90;;;4.53;;
16029;SDS011;34770;49.272;11.070;2023-01-24T06:43:42;7.30;;;5.13;;
16029;SDS011;34770;49.272;11.070;2023-01-24T06:46:09;6.47;;;4.83;;
16029;SDS011;34770;49.272;11.070;2023-01-24T06:48:35;7.33;;;5.00;;
16029;SDS011;34770;49.272;11.070;2023-01-24T06:51:01;8.50;;;6.13;;
16029;SDS011;34770;49.272;11.070;2023-01-24T06:53:26;5.60;;;4.87;;
16029;SDS011;34770;49.272;11.070;2023-01-24T06:55:51;5.17;;;4.67;;
16029;SDS011;34770;49.272;11.070;2023-01-24T06:58:17;6.23;;;5.60;;
16029;SDS011;34770;49.272;11.070;2023-01-24T07:00:42;6.53;;;4.97;;
16029;SDS011;34770;49.272;11.070;2023-01-24T07:03:08;6.73;;;4.70;;
16029;SDS011;34770;49.272;11.070;2023-01-24T07:05:35;6.17;;;5.33;;
16029;SDS011;34770;49.272;11.070;2023-01-24T07:08:01;5.63;;;4.53;;
16029;SDS011;34770;49.272;11.070;2023-01-24T07:10:27;6.87;;;4.90;;
16029;SDS011;34770;49.272;11.070;2023-01-24T07:12:53;6.63;;;5.13;;
16029;SDS011;34770;49.272;11.070;2023-01-24T07:15:19;5.63;;;5.00;;
16029;SDS011;34770;49.272;11.070;2023-01-24T07:17:45;5.60;;;4.73;;
16029;SDS011;34770;49.272;11.070;2023-01-24T07:20:11;5.70;;;4.67;;
16029;SDS011;34770;49.272;11.070;2023-01-24T07:22:38;6.07;;;4.60;;
16029;SDS011;34770;49.272;11.070;2023-01-24T07:25:04;5.80;;;4.57;;
16029;SDS011;34770;49.272;11.070;2023-01-24T07:27:36;5.17;;;4.67;;
16029;SDS011;34770;49.272;11.070;2023-01-24T07:30:01;5.53;;;4.63;;
16029;SDS011;34770;49.272;11.070;2023-01-24T07:32:27;5.73;;;4.43;;
16029;SDS011;34770;49.272;11.070;2023-01-24T07:34:52;5.57;;;4.43;;
16029;SDS011;34770;49.272;11.070;2023-01-24T07:37:18;5.10;;;4.57;;
16029;SDS011;34770;49.272;11.070;2023-01-24T07:39:48;6.50;;;5.23;;
16029;SDS011;34770;49.272;11.070;2023-01-24T07:42:13;6.43;;;4.43;;
16029;SDS011;34770;49.272;11.070;2023-01-24T07:44:39;5.13;;;4.20;;
16029;SDS011;34770;49.272;11.070;2023-01-24T07:47:04;6.17;;;4.20;;
16029;SDS011;34770;49.272;11.070;2023-01-24T07:49:30;5.20;;;4.43;;
16029;SDS011;34770;49.272;11.070;2023-01-24T07:51:55;7.60;;;5.00;;
16029;SDS011;34770;49.272;11.070;2023-01-24T07:54:21;5.83;;;5.23;;
16029;SDS011;34770;49.272;11.070;2023-01-24T07:56:46;5.67;;;4.90;;
16029;SDS011;34770;49.272;11.070;2023-01-24T07:59:12;5.90;;;4.53;;
16029;SDS011;34770;49.272;11.070;2023-01-24T08:01:37;4.90;;;4.40;;
16029;SDS011;34770;49.272;11.070;2023-01-24T08:04:03;6.60;;;4.77;;
16029;SDS011;34770;49.272;11.070;2023-01-24T08:06:28;6.43;;;5.77;;
16029;SDS011;34770;49.272;11.070;2023-01-24T08:08:54;5.33;;;4.67;;
16029;SDS011;34770;49.272;11.070;2023-01-24T08:11:19;6.07;;;4.93;;
16029;SDS011;34770;49.272;11.070;2023-01-24T08:13:46;7.20;;;5.17;;
16029;SDS011;34770;49.272;11.070;2023-01-24T08:16:12;6.87;;;4.90;;
16029;SDS011;34770;49.272;11.070;2023-01-24T08:18:41;4.63;;;4.07;;
16029;SDS011;34770;49.272;11.070;2023-01-24T08:21:08;8.17;;;5.77;;
16029;SDS011;34770;49.272;11.070;2023-01-24T08:23:34;7.07;;;5.20;;
16029;SDS011;34770;49.272;11.070;2023-01-24T08:26:00;7.27;;;5.87;;
16029;SDS011;34770;49.272;11.070;2023-01-24T08:28:26;6.50;;;4.67;;
16029;SDS011;34770;49.272;11.070;2023-01-24T08:30:52;7.30;;;5.33;;
16029;SDS011;34770;49.272;11.070;2023-01-24T08:33:17;7.53;;;5.57;;
16029;SDS011;34770;49.272;11.070;2023-01-24T08:35:53;6.63;;;5.67;;
16029;SDS011;34770;49.272;11.070;2023-01-24T08:38:18;6.53;;;5.30;;
16029;SDS011;34770;49.272;11.070;2023-01-24T08:40:43;8.53;;;5.60;;
16029;SDS011;34770;49.272;11.070;2023-01-24T08:43:09;6.50;;;5.50;;
16029;SDS011;34770;49.272;11.070;2023-01-24T08:45:35;8.30;;;6.20;;
16029;SDS011;34770;49.272;11.070;2023-01-24T08:48:00;6.03;;;5.17;;
16029;SDS011;34770;49.272;11.070;2023-01-24T08:50:26;7.40;;;5.53;;
16029;SDS011;34770;49.272;11.070;2023-01-24T08:52:55;6.83;;;5.60;;
16029;SDS011;34770;49.272;11.070;2023-01-24T08:55:21;5.70;;;5.10;;
16029;SDS011;34770;49.272;11.070;2023-01-24T08:57:47;8.30;;;6.07;;
16029;SDS011;34770;49.272;11.070;2023-01-24T09:00:13;7.00;;;5.33;;
16029;SDS011;34770;49.272;11.070;2023-01-24T09:02:38;6.47;;;5.10;;
16029;SDS011;34770;49.272;11.070;2023-01-24T09:05:05;7.30;;;5.40;;
16029;SDS011;34770;49.272;11.070;2023-01-24T09:07:31;7.27;;;5.30;;
16029;SDS011;34770;49.272;11.070;2023-01-24T09:09:57;6.53;;;5.13;;
16029;SDS011;34770;49.272;11.070;2023-01-24T09:12:22;5.97;;;5.43;;
16029;SDS011;34770;49.272;11.070;2023-01-24T09:14:48;7.50;;;5.07;;
16029;SDS011;34770;49.272;11.070;2023-01-24T09:17:13;7.03;;;5.43;;
16029;SDS011;34770;49.272;11.070;2023-01-24T09:19:39;5.33;;;4.30;;
16029;SDS011;34770;49.272;11.070;2023-01-24T09:22:04;6.60;;;5.40;;
16029;SDS011;34770;49.272;11.070;2023-01-24T09:24:30;5.00;;;4.50;;
16029;SDS011;34770;49.272;11.070;2023-01-24T09:26:55;5.30;;;4.80;;
16029;SDS011;34770;49.272;11.070;2023-01-24T09:29:20;6.27;;;4.93;;
16029;SDS011;34770;49.272;11.070;2023-01-24T09:31:47;5.40;;;4.20;;
16029;SDS011;34770;49.272;11.070;2023-01-24T09:34:13;8.00;;;5.80;;
16029;SDS011;34770;49.272;11.070;2023-01-24T09:36:39;5.67;;;4.70;;
16029;SDS011;34770;49.272;11.070;2023-01-24T09:39:05;6.37;;;5.03;;
16029;SDS011;34770;49.272;11.070;2023-01-24T09:44:20;5.83;;;5.07;;
16029;SDS011;34770;49.272;11.070;2023-01-24T09:46:52;4.77;;;4.17;;
16029;SDS011;34770;49.272;11.070;2023-01-24T09:49:31;5.77;;;5.17;;
16029;SDS011;34770;49.272;11.070;2023-01-24T09:52:03;5.50;;;4.80;;
16029;SDS011;34770;49.272;11.070;2023-01-24T10:00:19;6.27;;;4.63;;
16029;SDS011;34770;49.272;11.070;2023-01-24T10:02:49;5.90;;;5.17;;
16029;SDS011;34770;49.272;11.070;2023-01-24T10:05:15;5.53;;;4.97;;
16029;SDS011;34770;49.272;11.070;2023-01-24T10:13:18;5.87;;;4.37;;
16029;SDS011;34770;49.272;11.070;2023-01-24T10:21:29;5.33;;;4.30;;
16029;SDS011;34770;49.272;11.070;2023-01-24T10:24:09;5.23;;;4.50;;
16029;SDS011;34770;49.272;11.070;2023-01-24T10:26:42;5.53;;;4.90;;
16029;SDS011;34770;49.272;11.070;2023-01-24T10:29:26;7.03;;;5.60;;
16029;SDS011;34770;49.272;11.070;2023-01-24T10:34:40;7.03;;;5.03;;
16029;SDS011;34770;49.272;11.070;2023-01-24T10:39:34;6.27;;;4.50;;
16029;SDS011;34770;49.272;11.070;2023-01-24T10:42:00;6.00;;;5.40;;
16029;SDS011;34770;49.272;11.070;2023-01-24T10:44:27;5.57;;;4.77;;
16029;SDS011;34770;49.272;11.070;2023-01-24T10:47:09;6.17;;;4.23;;
16029;SDS011;34770;49.272;11.070;2023-01-24T10:50:00;6.70;;;4.90;;
16029;SDS011;34770;49.272;11.070;2023-01-24T10:52:29;6.87;;;5.37;;
16029;SDS011;34770;49.272;11.070;2023-01-24T10:54:55;6.20;;;5.07;;
16029;SDS011;34770;49.272;11.070;2023-01-24T11:00:27;5.07;;;4.57;;
16029;SDS011;34770;49.272;11.070;2023-01-24T11:03:19;6.93;;;5.50;;
16029;SDS011;34770;49.272;11.070;2023-01-24T11:05:49;5.77;;;4.87;;
16029;SDS011;34770;49.272;11.070;2023-01-24T11:08:22;5.50;;;5.00;;
16029;SDS011;34770;49.272;11.070;2023-01-24T11:11:20;5.37;;;4.63;;
16029;SDS011;34770;49.272;11.070;2023-01-24T11:13:49;5.30;;;4.80;;
16029;SDS011;34770;49.272;11.070;2023-01-24T11:16:21;6.93;;;4.80;;
16029;SDS011;34770;49.272;11.070;2023-01-24T11:21:27;7.23;;;5.23;;
16029;SDS011;34770;49.272;11.070;2023-01-24T11:24:02;7.27;;;5.20;;
16029;SDS011;34770;49.272;11.070;2023-01-24T11:26:50;5.93;;;4.90;;
16029;SDS011;34770;49.272;11.070;2023-01-24T11:29:26;7.70;;;5.50;;
16029;SDS011;34770;49.272;11.070;2023-01-24T11:31:52;6.23;;;5.03;;
16029;SDS011;34770;49.272;11.070;2023-01-24T11:48:00;5.77;;;4.87;;
16029;SDS011;34770;49.272;11.070;2023-01-24T11:53:25;6.97;;;5.77;;
16029;SDS011;34770;49.272;11.070;2023-01-24T12:07:28;6.70;;;5.23;;
16029;SDS011;34770;49.272;11.070;2023-01-24T12:10:11;6.17;;;4.97;;
16029;SDS011;34770;49.272;11.070;2023-01-24T12:21:03;7.17;;;6.47;;
16029;SDS011;34770;49.272;11.070;2023-01-24T12:23:35;8.20;;;7.50;;
16029;SDS011;34770;49.272;11.070;2023-01-24T12:26:12;8.13;;;5.83;;
16029;SDS011;34770;49.272;11.070;2023-01-24T12:31:47;6.63;;;4.67;;
16029;SDS011;34770;49.272;11.070;2023-01-24T12:37:06;7.03;;;5.03;;
16029;SDS011;34770;49.272;11.070;2023-01-24T12:39:44;6.30;;;5.43;;
16029;SDS011;34770;49.272;11.070;2023-01-24T12:42:17;6.80;;;5.83;;
16029;SDS011;34770;49.272;11.070;2023-01-24T12:44:55;6.47;;;5.43;;
16029;SDS011;34770;49.272;11.070;2023-01-24T12:55:52;11.13;;;7.27;;
16029;SDS011;34770;49.272;11.070;2023-01-24T12:58:27;8.60;;;7.40;;
16029;SDS011;34770;49.272;11.070;2023-01-24T13:01:03;7.47;;;6.53;;
16029;SDS011;34770;49.272;11.070;2023-01-24T13:11:29;7.10;;;6.43;;
16029;SDS011;34770;49.272;11.070;2023-01-24T13:14:06;10.53;;;6.37;;
16029;SDS011;34770;49.272;11.070;2023-01-24T13:27:45;7.43;;;5.67;;
16029;SDS011;34770;49.272;11.070;2023-01-24T13:30:41;11.10;;;6.50;;
16029;SDS011;34770;49.272;11.070;2023-01-24T13:33:08;7.83;;;6.17;;
16029;SDS011;34770;49.272;11.070;2023-01-24T13:35:46;7.43;;;5.70;;
16029;SDS011;34770;49.272;11.070;2023-01-24T13:38:26;33.63;;;15.63;;
16029;SDS011;34770;49.272;11.070;2023-01-24T13:40:58;8.57;;;7.20;;
16029;SDS011;34770;49.272;11.070;2023-01-24T13:46:01;10.60;;;9.53;;
16029;SDS011;34770;49.272;11.070;2023-01-24T13:48:44;8.97;;;7.40;;
16029;SDS011;34770;49.272;11.070;2023-01-24T13:54:03;13.10;;;8.10;;
16029;SDS011;34770;49.272;11.070;2023-01-24T13:59:37;8.03;;;6.37;;
16029;SDS011;34770;49.272;11.070;2023-01-24T14:02:26;9.00;;;7.00;;
16029;SDS011;34770;49.272;11.070;2023-01-24T14:04:54;9.37;;;6.93;;
16029;SDS011;34770;49.272;11.070;2023-01-24T14:07:30;11.43;;;8.80;;
16029;SDS011;34770;49.272;11.070;2023-01-24T14:10:02;8.70;;;7.20;;
16029;SDS011;34770;49.272;11.070;2023-01-24T14:12:29;8.10;;;6.63;;
16029;SDS011;34770;49.272;11.070;2023-01-24T14:20:01;7.33;;;5.93;;
16029;SDS011;34770;49.272;11.070;2023-01-24T14:22:37;9.20;;;7.27;;
16029;SDS011;34770;49.272;11.070;2023-01-24T14:25:24;10.13;;;8.00;;
16029;SDS011;34770;49.272;11.070;2023-01-24T14:30:56;11.30;;;7.73;;
16029;SDS011;34770;49.272;11.070;2023-01-24T14:36:12;13.47;;;7.37;;
16029;SDS011;34770;49.272;11.070;2023-01-24T14:38:46;9.40;;;7.10;;
16029;SDS011;34770;49.272;11.070;2023-01-24T14:41:21;7.03;;;6.13;;
16029;SDS011;34770;49.272;11.070;2023-01-24T14:43:47;9.37;;;7.47;;
16029;SDS011;34770;49.272;11.070;2023-01-24T14:46:24;6.97;;;6.13;;
16029;SDS011;34770;49.272;11.070;2023-01-24T14:48:49;11.83;;;8.67;;
16029;SDS011;34770;49.272;11.070;2023-01-24T14:51:16;8.87;;;6.80;;
16029;SDS011;34770;49.272;11.070;2023-01-24T14:53:47;9.97;;;8.00;;
16029;SDS011;34770;49.272;11.070;2023-01-24T14:56:15;7.40;;;6.60;;
16029;SDS011;34770;49.272;11.070;2023-01-24T14:58:41;8.13;;;6.93;;
16029;SDS011;34770;49.272;11.070;2023-01-24T15:01:27;11.03;;;8.10;;
16029;SDS011;34770;49.272;11.070;2023-01-24T15:03:55;8.70;;;7.07;;
16029;SDS011;34770;49.272;11.070;2023-01-24T15:06:23;12.23;;;9.33;;
16029;SDS011;34770;49.272;11.070;2023-01-24T15:08:58;10.77;;;8.57;;
16029;SDS011;34770;49.272;11.070;2023-01-24T15:11:27;10.20;;;7.10;;
16029;SDS011;34770;49.272;11.070;2023-01-24T15:13:57;11.83;;;7.57;;
16029;SDS011;34770;49.272;11.070;2023-01-24T15:16:49;16.03;;;11.73;;
16029;SDS011;34770;49.272;11.070;2023-01-24T15:21:56;13.60;;;10.53;;
16029;SDS011;34770;49.272;11.070;2023-01-24T15:24:24;13.83;;;9.27;;
16029;SDS011;34770;49.272;11.070;2023-01-24T15:26:52;12.57;;;9.90;;
16029;SDS011;34770;49.272;11.070;2023-01-24T15:40:45;12.57;;;7.67;;
16029;SDS011;34770;49.272;11.070;2023-01-24T15:43:20;9.93;;;7.60;;
16029;SDS011;34770;49.272;11.070;2023-01-24T15:49:25;14.57;;;11.53;;
16029;SDS011;34770;49.272;11.070;2023-01-24T15:54:35;9.83;;;7.57;;
16029;SDS011;34770;49.272;11.070;2023-01-24T15:57:03;8.87;;;7.47;;
16029;SDS011;34770;49.272;11.070;2023-01-24T15:59:42;10.67;;;6.97;;
16029;SDS011;34770;49.272;11.070;2023-01-24T16:02:13;10.47;;;8.50;;
16029;SDS011;34770;49.272;11.070;2023-01-24T16:04:39;11.87;;;9.53;;
16029;SDS011;34770;49.272;11.070;2023-01-24T16:07:05;9.90;;;8.43;;
16029;SDS011;34770;49.272;11.070;2023-01-24T16:09:31;14.40;;;11.40;;
16029;SDS011;34770;49.272;11.070;2023-01-24T16:11:56;10.57;;;8.90;;
16029;SDS011;34770;49.272;11.070;2023-01-24T16:14:23;15.30;;;10.10;;
16029;SDS011;34770;49.272;11.070;2023-01-24T16:16:50;14.93;;;10.03;;
16029;SDS011;34770;49.272;11.070;2023-01-24T16:19:20;10.60;;;8.50;;
16029;SDS011;34770;49.272;11.070;2023-01-24T16:21:48;13.17;;;9.57;;
16029;SDS011;34770;49.272;11.070;2023-01-24T16:24:14;13.97;;;8.57;;
16029;SDS011;34770;49.272;11.070;2023-01-24T16:26:41;11.63;;;9.27;;
16029;SDS011;34770;49.272;11.070;2023-01-24T16:29:14;13.00;;;10.80;;
16029;SDS011;34770;49.272;11.070;2023-01-24T16:31:43;11.50;;;10.10;;
16029;SDS011;34770;49.272;11.070;2023-01-24T16:34:09;9.77;;;7.60;;
16029;SDS011;34770;49.272;11.070;2023-01-24T16:36:35;8.53;;;7.20;;
16029;SDS011;34770;49.272;11.070;2023-01-24T16:39:00;10.30;;;7.70;;
16029;SDS011;34770;49.272;11.070;2023-01-24T16:41:26;10.27;;;7.20;;
16029;SDS011;34770;49.272;11.070;2023-01-24T16:43:51;12.47;;;9.47;;
16029;SDS011;34770;49.272;11.070;2023-01-24T16:46:18;7.93;;;6.73;;
16029;SDS011;34770;49.272;11.070;2023-01-24T16:48:45;10.43;;;7.83;;
16029;SDS011;34770;49.272;11.070;2023-01-24T16:51:11;8.83;;;7.43;;
16029;SDS011;34770;49.272;11.070;2023-01-24T16:53:38;12.27;;;8.77;;
16029;SDS011;34770;49.272;11.070;2023-01-24T16:56:03;9.37;;;6.90;;
16029;SDS011;34770;49.272;11.070;2023-01-24T16:58:29;10.73;;;7.67;;
16029;SDS011;34770;49.272;11.070;2023-01-24T17:00:55;10.93;;;7.63;;
16029;SDS011;34770;49.272;11.070;2023-01-24T17:03:20;11.27;;;7.40;;
16029;SDS011;34770;49.272;11.070;2023-01-24T17:05:46;10.00;;;8.37;;
16029;SDS011;34770;49.272;11.070;2023-01-24T17:08:11;8.57;;;7.17;;
16029;SDS011;34770;49.272;11.070;2023-01-24T17:10:38;11.57;;;7.47;;
16029;SDS011;34770;49.272;11.070;2023-01-24T17:13:05;9.57;;;7.63;;
16029;SDS011;34770;49.272;11.070;2023-01-24T17:15:33;10.03;;;7.63;;
16029;SDS011;34770;49.272;11.070;2023-01-24T17:17:59;7.80;;;6.77;;
16029;SDS011;34770;49.272;11.070;2023-01-24T17:20:24;9.93;;;7.73;;
16029;SDS011;34770;49.272;11.070;2023-01-24T17:22:50;8.63;;;7.03;;
16029;SDS011;34770;49.272;11.070;2023-01-24T17:25:15;12.83;;;8.53;;